sensor_id;sensor_type;location;lat;lon;timestamp;pressure;altitude;pressure_sealevel;temperature;humidity
28927;BME280;16038;47.692;9.400;2022-12-07T00:01:30;96636.25;;;2.31;100.00
28927;BME280;16038;47.692;9.400;2022-12-07T00:03:58;96626.22;;;2.31;100.00
28927;BME280;16038;47.692;9.400;2022-12-07T00:06:33;96624.44;;;2.26;100.00
28927;BME280;16038;47.692;9.400;2022-12-07T00:08:59;96626.22;;;2.31;100.00
28927;BME280;16038;47.692;9.400;2022-12-07T00:11:25;96623.34;;;2.27;100.00
28927;BME280;16038;47.692;9.400;2022-12-07T00:13:56;96623.16;;;2.15;100.00
28927;BME280;16038;47.692;9.400;2022-12-07T00:16:24;96624.88;;;2.11;100.00
28927;BME280;16038;47.692;9.400;2022-12-07T00:18:49;96625.66;;;2.03;100.00
28927;BME280;16038;47.692;9.400;2022-12-07T00:21:23;96630.31;;;2.20;100.00
28927;BME280;16038;47.692;9.400;2022-12-07T00:23:51;96616.34;;;2.26;100.00
28927;BME280;16038;47.692;9.400;2022-12-07T00:26:24;96624.13;;;2.28;100.00
28927;BME280;16038;47.692;9.400;2022-12-07T00:29:01;96620.03;;;2.31;100.00
28927;BME280;16038;47.692;9.400;2022-12-07T00:31:30;96626.53;;;2.29;100.00
28927;BME280;16038;47.692;9.400;2022-12-07T00:33:57;96623.38;;;2.36;100.00
28927;BME280;16038;47.692;9.400;2022-12-07T00:36:23;96625.91;;;2.41;100.00
28927;BME280;16038;47.692;9.400;2022-12-07T00:38:49;96612.72;;;2.40;100.00
28927;BME280;16038;47.692;9.400;2022-12-07T00:41:20;96617.13;;;2.36;100.00
28927;BME280;16038;47.692;9.400;2022-12-07T00:43:47;96618.72;;;2.28;100.00
28927;BME280;16038;47.692;9.400;2022-12-07T00:46:13;96623.81;;;2.29;100.00
28927;BME280;16038;47.692;9.400;2022-12-07T00:48:39;96627.31;;;2.30;100.00
28927;BME280;16038;47.692;9.400;2022-12-07T00:51:05;96622.38;;;2.32;100.00
28927;BME280;16038;47.692;9.400;2022-12-07T00:53:31;96626.06;;;2.36;100.00
28927;BME280;16038;47.692;9.400;2022-12-07T00:56:04;96629.88;;;2.35;100.00
28927;BME280;16038;47.692;9.400;2022-12-07T00:58:30;96629.72;;;2.40;100.00
28927;BME280;16038;47.692;9.400;2022-12-07T01:00:59;96628.28;;;2.43;100.00
28927;BME280;16038;47.692;9.400;2022-12-07T01:03:25;96629.41;;;2.42;100.00
28927;BME280;16038;47.692;9.400;2022-12-07T01:05:52;96626.88;;;2.45;100.00
28927;BME280;16038;47.692;9.400;2022-12-07T01:08:18;96630.53;;;2.49;100.00
28927;BME280;16038;47.692;9.400;2022-12-07T01:10:44;96633.53;;;2.39;100.00
28927;BME280;16038;47.692;9.400;2022-12-07T01:13:09;96632.41;;;2.32;100.00
28927;BME280;16038;47.692;9.400;2022-12-07T01:15:39;96639.72;;;2.31;100.00
28927;BME280;16038;47.692;9.400;2022-12-07T01:18:05;96633.97;;;2.24;100.00
28927;BME280;16038;47.692;9.400;2022-12-07T01:20:30;96630.00;;;2.30;100.00
28927;BME280;16038;47.692;9.400;2022-12-07T01:22:55;96640.53;;;2.40;100.00
28927;BME280;16038;47.692;9.400;2022-12-07T01:25:21;96634.97;;;2.37;100.00
28927;BME280;16038;47.692;9.400;2022-12-07T01:27:46;96634.16;;;2.27;100.00
28927;BME280;16038;47.692;9.400;2022-12-07T01:30:12;96640.16;;;2.16;100.00
28927;BME280;16038;47.692;9.400;2022-12-07T01:32:38;96636.81;;;2.19;100.00
28927;BME280;16038;47.692;9.400;2022-12-07T01:35:04;96646.53;;;2.28;100.00
28927;BME280;16038;47.692;9.400;2022-12-07T01:37:34;96636.69;;;2.24;100.00
28927;BME280;16038;47.692;9.400;2022-12-07T01:40:00;96633.91;;;2.06;100.00
28927;BME280;16038;47.692;9.400;2022-12-07T01:42:26;96638.22;;;2.07;100.00
28927;BME280;16038;47.692;9.400;2022-12-07T01:47:56;96640.97;;;2.25;100.00
28927;BME280;16038;47.692;9.400;2022-12-07T01:50:25;96631.13;;;2.29;100.00
28927;BME280;16038;47.692;9.400;2022-12-07T01:52:53;96636.81;;;2.19;100.00
28927;BME280;16038;47.692;9.400;2022-12-07T01:55:21;96626.19;;;2.22;100.00
28927;BME280;16038;47.692;9.400;2022-12-07T01:57:49;96626.03;;;2.27;100.00
28927;BME280;16038;47.692;9.400;2022-12-07T02:00:16;96627.78;;;2.23;100.00
28927;BME280;16038;47.692;9.400;2022-12-07T02:02:49;96635.72;;;2.20;100.00
28927;BME280;16038;47.692;9.400;2022-12-07T02:05:16;96635.09;;;2.23;100.00
28927;BME280;16038;47.692;9.400;2022-12-07T02:07:42;96631.25;;;2.15;100.00
28927;BME280;16038;47.692;9.400;2022-12-07T02:12:39;96632.69;;;2.21;100.00
28927;BME280;16038;47.692;9.400;2022-12-07T02:15:05;96629.50;;;2.19;100.00
28927;BME280;16038;47.692;9.400;2022-12-07T02:17:47;96625.09;;;2.23;100.00
28927;BME280;16038;47.692;9.400;2022-12-07T02:23:26;96619.34;;;2.25;100.00
28927;BME280;16038;47.692;9.400;2022-12-07T02:26:09;96620.00;;;2.22;100.00
28927;BME280;16038;47.692;9.400;2022-12-07T02:31:31;96608.38;;;2.21;100.00
28927;BME280;16038;47.692;9.400;2022-12-07T02:36:50;96607.06;;;2.10;100.00
28927;BME280;16038;47.692;9.400;2022-12-07T02:39:28;96604.50;;;2.05;100.00
28927;BME280;16038;47.692;9.400;2022-12-07T02:42:00;96608.44;;;1.90;100.00
28927;BME280;16038;47.692;9.400;2022-12-07T02:44:28;96615.72;;;1.81;100.00
28927;BME280;16038;47.692;9.400;2022-12-07T02:47:00;96611.56;;;1.75;100.00
28927;BME280;16038;47.692;9.400;2022-12-07T02:49:27;96604.31;;;1.84;100.00
28927;BME280;16038;47.692;9.400;2022-12-07T02:51:53;96613.41;;;1.97;100.00
28927;BME280;16038;47.692;9.400;2022-12-07T02:54:20;96606.41;;;1.96;100.00
28927;BME280;16038;47.692;9.400;2022-12-07T02:56:51;96616.94;;;2.06;100.00
28927;BME280;16038;47.692;9.400;2022-12-07T03:05:27;96617.72;;;2.06;100.00
28927;BME280;16038;47.692;9.400;2022-12-07T03:08:04;96613.13;;;2.16;100.00
28927;BME280;16038;47.692;9.400;2022-12-07T03:10:44;96615.03;;;2.15;100.00
28927;BME280;16038;47.692;9.400;2022-12-07T03:13:49;96608.03;;;2.14;100.00
28927;BME280;16038;47.692;9.400;2022-12-07T03:16:24;96611.56;;;2.15;100.00
28927;BME280;16038;47.692;9.400;2022-12-07T03:18:56;96614.41;;;2.18;100.00
28927;BME280;16038;47.692;9.400;2022-12-07T03:21:26;96609.03;;;2.27;100.00
28927;BME280;16038;47.692;9.400;2022-12-07T03:23:58;96613.16;;;2.24;100.00
28927;BME280;16038;47.692;9.400;2022-12-07T03:26:36;96610.63;;;2.28;100.00
28927;BME280;16038;47.692;9.400;2022-12-07T03:29:07;96609.53;;;2.29;100.00
28927;BME280;16038;47.692;9.400;2022-12-07T03:31:41;96607.91;;;2.28;100.00
28927;BME280;16038;47.692;9.400;2022-12-07T03:37:11;96612.06;;;2.25;100.00
28927;BME280;16038;47.692;9.400;2022-12-07T03:42:37;96606.63;;;2.17;100.00
28927;BME280;16038;47.692;9.400;2022-12-07T03:45:03;96608.88;;;2.23;100.00
28927;BME280;16038;47.692;9.400;2022-12-07T03:48:02;96600.91;;;2.18;100.00
28927;BME280;16038;47.692;9.400;2022-12-07T03:53:12;96606.75;;;2.12;100.00
28927;BME280;16038;47.692;9.400;2022-12-07T03:55:42;96602.66;;;2.23;100.00
28927;BME280;16038;47.692;9.400;2022-12-07T03:58:12;96596.25;;;2.10;100.00
28927;BME280;16038;47.692;9.400;2022-12-07T04:00:41;96596.75;;;2.12;100.00
28927;BME280;16038;47.692;9.400;2022-12-07T04:03:07;96591.50;;;2.16;100.00
28927;BME280;16038;47.692;9.400;2022-12-07T04:05:33;96592.78;;;2.09;100.00
28927;BME280;16038;47.692;9.400;2022-12-07T04:07:58;96593.91;;;2.17;100.00
28927;BME280;16038;47.692;9.400;2022-12-07T04:10:24;96600.94;;;2.27;100.00
28927;BME280;16038;47.692;9.400;2022-12-07T04:12:52;96603.00;;;2.30;100.00
28927;BME280;16038;47.692;9.400;2022-12-07T04:15:17;96605.38;;;2.32;100.00
28927;BME280;16038;47.692;9.400;2022-12-07T04:17:43;96602.50;;;2.28;100.00
28927;BME280;16038;47.692;9.400;2022-12-07T04:20:09;96601.38;;;2.20;100.00
28927;BME280;16038;47.692;9.400;2022-12-07T04:22:34;96606.16;;;2.23;100.00
28927;BME280;16038;47.692;9.400;2022-12-07T04:25:00;96603.78;;;2.22;100.00
28927;BME280;16038;47.692;9.400;2022-12-07T04:27:25;96602.34;;;2.24;100.00
28927;BME280;16038;47.692;9.400;2022-12-07T04:29:51;96609.50;;;2.20;100.00
28927;BME280;16038;47.692;9.400;2022-12-07T04:32:16;96603.28;;;2.28;100.00
28927;BME280;16038;47.692;9.400;2022-12-07T04:34:42;96603.13;;;2.25;100.00
28927;BME280;16038;47.692;9.400;2022-12-07T04:37:07;96602.47;;;2.19;100.00
28927;BME280;16038;47.692;9.400;2022-12-07T04:39:33;96605.84;;;2.25;100.00
28927;BME280;16038;47.692;9.400;2022-12-07T04:42:00;96602.16;;;2.12;100.00
28927;BME280;16038;47.692;9.400;2022-12-07T04:44:26;96603.91;;;2.17;100.00
28927;BME280;16038;47.692;9.400;2022-12-07T04:46:53;96601.38;;;2.20;100.00
28927;BME280;16038;47.692;9.400;2022-12-07T04:49:19;96606.97;;;2.24;100.00
28927;BME280;16038;47.692;9.400;2022-12-07T04:51:45;96612.38;;;2.24;100.00
28927;BME280;16038;47.692;9.400;2022-12-07T04:54:11;96606.00;;;2.20;100.00
28927;BME280;16038;47.692;9.400;2022-12-07T04:56:37;96602.78;;;2.09;100.00
28927;BME280;16038;47.692;9.400;2022-12-07T04:59:03;96607.88;;;2.02;100.00
28927;BME280;16038;47.692;9.400;2022-12-07T05:01:28;96608.66;;;2.02;100.00
28927;BME280;16038;47.692;9.400;2022-12-07T05:03:54;96611.19;;;1.99;100.00
28927;BME280;16038;47.692;9.400;2022-12-07T05:06:19;96607.69;;;1.98;100.00
28927;BME280;16038;47.692;9.400;2022-12-07T05:08:45;96598.13;;;1.92;100.00
28927;BME280;16038;47.692;9.400;2022-12-07T05:11:12;96605.56;;;1.86;100.00
28927;BME280;16038;47.692;9.400;2022-12-07T05:14:02;96614.75;;;1.77;100.00
28927;BME280;16038;47.692;9.400;2022-12-07T05:16:27;96611.94;;;1.90;100.00
28927;BME280;16038;47.692;9.400;2022-12-07T05:18:53;96605.00;;;2.07;100.00
28927;BME280;16038;47.692;9.400;2022-12-07T05:21:18;96602.47;;;2.19;100.00
28927;BME280;16038;47.692;9.400;2022-12-07T05:23:44;96603.63;;;2.18;100.00
28927;BME280;16038;47.692;9.400;2022-12-07T05:26:09;96602.47;;;2.19;100.00
28927;BME280;16038;47.692;9.400;2022-12-07T05:28:35;96598.84;;;2.24;100.00
28927;BME280;16038;47.692;9.400;2022-12-07T05:31:00;96602.66;;;2.23;100.00
28927;BME280;16038;47.692;9.400;2022-12-07T05:33:26;96606.16;;;2.23;100.00
28927;BME280;16038;47.692;9.400;2022-12-07T05:35:51;96609.97;;;2.22;100.00
28927;BME280;16038;47.692;9.400;2022-12-07T05:38:17;96612.03;;;2.17;100.00
28927;BME280;16038;47.692;9.400;2022-12-07T05:40:42;96607.56;;;2.21;100.00
28927;BME280;16038;47.692;9.400;2022-12-07T05:43:07;96607.59;;;2.29;100.00
28927;BME280;16038;47.692;9.400;2022-12-07T05:45:33;96614.59;;;2.22;100.00
28927;BME280;16038;47.692;9.400;2022-12-07T05:47:58;96606.31;;;2.36;100.00
28927;BME280;16038;47.692;9.400;2022-12-07T05:50:24;96610.81;;;2.40;100.00
28927;BME280;16038;47.692;9.400;2022-12-07T05:52:49;96614.78;;;2.34;100.00
28927;BME280;16038;47.692;9.400;2022-12-07T05:55:15;96610.47;;;2.33;100.00
28927;BME280;16038;47.692;9.400;2022-12-07T05:57:40;96604.41;;;2.27;100.00
28927;BME280;16038;47.692;9.400;2022-12-07T06:00:26;96613.47;;;2.23;100.00
28927;BME280;16038;47.692;9.400;2022-12-07T06:02:51;96612.81;;;2.17;100.00
28927;BME280;16038;47.692;9.400;2022-12-07T06:05:16;96610.13;;;2.17;100.00
28927;BME280;16038;47.692;9.400;2022-12-07T06:07:42;96614.72;;;2.17;100.00
28927;BME280;16038;47.692;9.400;2022-12-07T06:10:07;96616.47;;;2.21;100.00
28927;BME280;16038;47.692;9.400;2022-12-07T06:12:33;96613.09;;;2.07;100.00
28927;BME280;16038;47.692;9.400;2022-12-07T06:14:59;96621.38;;;2.10;100.00
28927;BME280;16038;47.692;9.400;2022-12-07T06:17:24;96626.47;;;2.12;100.00
28927;BME280;16038;47.692;9.400;2022-12-07T06:19:50;96621.38;;;2.10;100.00
28927;BME280;16038;47.692;9.400;2022-12-07T06:22:16;96623.75;;;2.12;100.00
28927;BME280;16038;47.692;9.400;2022-12-07T06:24:42;96625.38;;;2.13;100.00
28927;BME280;16038;47.692;9.400;2022-12-07T06:27:08;96628.06;;;2.13;100.00
28927;BME280;16038;47.692;9.400;2022-12-07T06:29:34;96619.50;;;2.11;100.00
28927;BME280;16038;47.692;9.400;2022-12-07T06:31:59;96625.50;;;2.08;100.00
28927;BME280;16038;47.692;9.400;2022-12-07T06:34:26;96630.13;;;2.07;100.00
28927;BME280;16038;47.692;9.400;2022-12-07T06:36:53;96632.97;;;2.02;100.00
28927;BME280;16038;47.692;9.400;2022-12-07T06:39:23;96629.50;;;1.70;100.00
28927;BME280;16038;47.692;9.400;2022-12-07T06:41:49;96630.09;;;1.67;100.00
28927;BME280;16038;47.692;9.400;2022-12-07T06:44:14;96626.22;;;1.51;100.00
28927;BME280;16038;47.692;9.400;2022-12-07T06:46:40;96633.53;;;1.50;100.00
28927;BME280;16038;47.692;9.400;2022-12-07T06:49:07;96626.44;;;1.63;100.00
28927;BME280;16038;47.692;9.400;2022-12-07T06:51:33;96629.50;;;1.70;100.00
28927;BME280;16038;47.692;9.400;2022-12-07T06:54:00;96627.69;;;1.57;100.00
28927;BME280;16038;47.692;9.400;2022-12-07T06:56:25;96629.25;;;1.58;100.00
28927;BME280;16038;47.692;9.400;2022-12-07T06:58:51;96619.28;;;1.59;100.00
28927;BME280;16038;47.692;9.400;2022-12-07T07:01:18;96628.22;;;1.68;100.00
28927;BME280;16038;47.692;9.400;2022-12-07T07:03:44;96622.88;;;1.77;100.00
28927;BME280;16038;47.692;9.400;2022-12-07T07:06:10;96624.47;;;1.86;100.00
28927;BME280;16038;47.692;9.400;2022-12-07T07:08:36;96613.72;;;1.95;100.00
28927;BME280;16038;47.692;9.400;2022-12-07T07:11:02;96625.78;;;1.98;100.00
28927;BME280;16038;47.692;9.400;2022-12-07T07:13:28;96620.69;;;1.87;100.00
28927;BME280;16038;47.692;9.400;2022-12-07T07:15:54;96627.44;;;1.76;100.00
28927;BME280;16038;47.692;9.400;2022-12-07T07:18:19;96630.44;;;1.75;100.00
28927;BME280;16038;47.692;9.400;2022-12-07T07:20:45;96630.31;;;1.80;100.00
28927;BME280;16038;47.692;9.400;2022-12-07T07:23:10;96627.91;;;1.69;100.00
28927;BME280;16038;47.692;9.400;2022-12-07T07:25:36;96639.31;;;1.66;100.00
28927;BME280;16038;47.692;9.400;2022-12-07T07:31:22;96637.84;;;1.91;100.00
28927;BME280;16038;47.692;9.400;2022-12-07T07:33:48;96633.38;;;1.87;100.00
28927;BME280;16038;47.692;9.400;2022-12-07T07:36:13;96636.44;;;2.03;100.00
28927;BME280;16038;47.692;9.400;2022-12-07T07:38:39;96640.94;;;2.07;100.00
28927;BME280;16038;47.692;9.400;2022-12-07T07:41:04;96640.41;;;1.97;100.00
28927;BME280;16038;47.692;9.400;2022-12-07T07:43:29;96641.19;;;1.97;100.00
28927;BME280;16038;47.692;9.400;2022-12-07T07:45:55;96643.78;;;2.02;100.00
28927;BME280;16038;47.692;9.400;2022-12-07T07:48:20;96644.72;;;2.06;100.00
28927;BME280;16038;47.692;9.400;2022-12-07T07:50:48;96651.19;;;1.88;100.00
28927;BME280;16038;47.692;9.400;2022-12-07T07:53:13;96641.94;;;1.80;100.00
28927;BME280;16038;47.692;9.400;2022-12-07T07:55:39;96649.53;;;1.78;100.00
28927;BME280;16038;47.692;9.400;2022-12-07T07:58:04;96655.75;;;1.79;100.00
28927;BME280;16038;47.692;9.400;2022-12-07T08:00:30;96647.50;;;1.84;100.00
28927;BME280;16038;47.692;9.400;2022-12-07T08:02:55;96652.31;;;1.96;100.00
28927;BME280;16038;47.692;9.400;2022-12-07T08:05:21;96653.13;;;2.05;100.00
28927;BME280;16038;47.692;9.400;2022-12-07T08:07:46;96647.66;;;1.79;100.00
28927;BME280;16038;47.692;9.400;2022-12-07T08:10:13;96647.16;;;1.77;100.00
28927;BME280;16038;47.692;9.400;2022-12-07T08:12:41;96651.53;;;1.64;100.00
28927;BME280;16038;47.692;9.400;2022-12-07T08:15:26;96652.66;;;1.40;100.00
28927;BME280;16038;47.692;9.400;2022-12-07T08:17:52;96651.22;;;1.34;100.00
28927;BME280;16038;47.692;9.400;2022-12-07T08:20:17;96655.94;;;1.28;100.00
28927;BME280;16038;47.692;9.400;2022-12-07T08:22:43;96659.00;;;1.36;100.00
28927;BME280;16038;47.692;9.400;2022-12-07T08:25:08;96653.34;;;1.23;100.00
28927;BME280;16038;47.692;9.400;2022-12-07T08:27:33;96659.25;;;1.25;100.00
28927;BME280;16038;47.692;9.400;2022-12-07T08:29:59;96656.84;;;1.24;100.00
28927;BME280;16038;47.692;9.400;2022-12-07T08:32:25;96655.88;;;1.20;100.00
28927;BME280;16038;47.692;9.400;2022-12-07T08:34:51;96658.56;;;1.20;100.00
28927;BME280;16038;47.692;9.400;2022-12-07T08:37:17;96660.19;;;1.21;100.00
28927;BME280;16038;47.692;9.400;2022-12-07T08:39:42;96654.41;;;1.13;100.00
28927;BME280;16038;47.692;9.400;2022-12-07T08:42:08;96657.59;;;1.16;100.00
28927;BME280;16038;47.692;9.400;2022-12-07T08:44:33;96662.06;;;1.20;100.00
28927;BME280;16038;47.692;9.400;2022-12-07T08:47:02;96665.94;;;1.28;100.00
28927;BME280;16038;47.692;9.400;2022-12-07T08:49:36;96657.47;;;1.21;100.00
28927;BME280;16038;47.692;9.400;2022-12-07T08:52:05;96663.44;;;1.31;100.00
28927;BME280;16038;47.692;9.400;2022-12-07T08:54:33;96671.53;;;1.31;100.00
28927;BME280;16038;47.692;9.400;2022-12-07T08:57:00;96667.44;;;1.20;100.00
28927;BME280;16038;47.692;9.400;2022-12-07T08:59:26;96671.94;;;1.25;100.00
28927;BME280;16038;47.692;9.400;2022-12-07T09:01:53;96669.72;;;1.27;100.00
28927;BME280;16038;47.692;9.400;2022-12-07T09:04:18;96668.31;;;1.29;100.00
28927;BME280;16038;47.692;9.400;2022-12-07T09:06:46;96679.63;;;1.31;100.00
28927;BME280;16038;47.692;9.400;2022-12-07T09:09:13;96672.13;;;1.28;100.00
28927;BME280;16038;47.692;9.400;2022-12-07T09:11:39;96680.88;;;1.34;100.00
28927;BME280;16038;47.692;9.400;2022-12-07T09:14:04;96675.19;;;1.36;100.00
28927;BME280;16038;47.692;9.400;2022-12-07T09:16:30;96679.72;;;1.26;100.00
28927;BME280;16038;47.692;9.400;2022-12-07T09:18:55;96670.97;;;1.21;100.00
28927;BME280;16038;47.692;9.400;2022-12-07T09:21:21;96676.19;;;1.17;100.00
28927;BME280;16038;47.692;9.400;2022-12-07T09:23:46;96676.97;;;1.18;100.00
28927;BME280;16038;47.692;9.400;2022-12-07T09:26:12;96670.63;;;1.22;100.00
28927;BME280;16038;47.692;9.400;2022-12-07T09:28:37;96679.72;;;1.26;100.00
28927;BME280;16038;47.692;9.400;2022-12-07T09:31:03;96675.25;;;1.22;100.00
28927;BME280;16038;47.692;9.400;2022-12-07T09:33:29;96683.16;;;1.18;100.00
28927;BME280;16038;47.692;9.400;2022-12-07T09:35:54;96688.91;;;1.25;100.00
28927;BME280;16038;47.692;9.400;2022-12-07T09:38:20;96682.72;;;1.25;100.00
28927;BME280;16038;47.692;9.400;2022-12-07T09:40:46;96681.75;;;1.21;100.00
28927;BME280;16038;47.692;9.400;2022-12-07T09:43:20;96688.63;;;1.27;100.00
28927;BME280;16038;47.692;9.400;2022-12-07T09:45:49;96675.50;;;1.34;100.00
28927;BME280;16038;47.692;9.400;2022-12-07T09:48:18;96679.78;;;1.35;100.00
28927;BME280;16038;47.692;9.400;2022-12-07T09:50:45;96679.28;;;1.33;100.00
28927;BME280;16038;47.692;9.400;2022-12-07T09:53:26;96668.06;;;1.40;100.00
28927;BME280;16038;47.692;9.400;2022-12-07T09:55:53;96674.06;;;1.37;100.00
28927;BME280;16038;47.692;9.400;2022-12-07T09:58:22;96670.81;;;1.48;100.00
28927;BME280;16038;47.692;9.400;2022-12-07T10:00:51;96670.41;;;1.55;100.00
28927;BME280;16038;47.692;9.400;2022-12-07T10:03:19;96661.72;;;1.67;100.00
28927;BME280;16038;47.692;9.400;2022-12-07T10:05:47;96658.09;;;1.71;100.00
28927;BME280;16038;47.692;9.400;2022-12-07T10:08:15;96657.38;;;1.57;100.00
28927;BME280;16038;47.692;9.400;2022-12-07T10:10:43;96652.94;;;1.92;100.00
28927;BME280;16038;47.692;9.400;2022-12-07T10:13:20;96647.78;;;2.14;100.00
28927;BME280;16038;47.692;9.400;2022-12-07T10:18:29;96630.31;;;2.28;100.00
28927;BME280;16038;47.692;9.400;2022-12-07T10:21:15;96629.88;;;2.44;100.00
28927;BME280;16038;47.692;9.400;2022-12-07T10:24:23;96631.81;;;2.61;100.00
28927;BME280;16038;47.692;9.400;2022-12-07T10:34:39;96631.66;;;3.10;100.00
28927;BME280;16038;47.692;9.400;2022-12-07T10:39:51;96621.00;;;3.22;100.00
28927;BME280;16038;47.692;9.400;2022-12-07T10:42:28;96611.47;;;3.16;100.00
28927;BME280;16038;47.692;9.400;2022-12-07T10:47:48;96617.13;;;3.49;100.00
28927;BME280;16038;47.692;9.400;2022-12-07T10:50:45;96609.84;;;3.32;100.00
28927;BME280;16038;47.692;9.400;2022-12-07T11:01:32;96601.09;;;3.35;100.00
28927;BME280;16038;47.692;9.400;2022-12-07T11:04:30;96596.59;;;3.39;100.00
28927;BME280;16038;47.692;9.400;2022-12-07T11:12:24;96589.19;;;2.75;100.00
28927;BME280;16038;47.692;9.400;2022-12-07T11:15:08;96581.38;;;2.74;100.00
28927;BME280;16038;47.692;9.400;2022-12-07T11:17:50;96578.38;;;3.01;100.00
28927;BME280;16038;47.692;9.400;2022-12-07T11:20:43;96584.69;;;3.23;100.00
28927;BME280;16038;47.692;9.400;2022-12-07T11:34:55;96566.81;;;3.39;100.00
28927;BME280;16038;47.692;9.400;2022-12-07T11:37:33;96570.44;;;3.52;100.00
28927;BME280;16038;47.692;9.400;2022-12-07T11:43:27;96563.53;;;3.08;100.00
28927;BME280;16038;47.692;9.400;2022-12-07T11:48:28;96561.28;;;3.18;100.00
28927;BME280;16038;47.692;9.400;2022-12-07T11:50:57;96557.47;;;3.19;100.00
28927;BME280;16038;47.692;9.400;2022-12-07T11:53:33;96563.03;;;3.23;100.00
28927;BME280;16038;47.692;9.400;2022-12-07T11:56:13;96554.38;;;3.38;100.00
28927;BME280;16038;47.692;9.400;2022-12-07T12:04:29;96549.91;;;3.51;100.00
28927;BME280;16038;47.692;9.400;2022-12-07T12:06:57;96548.63;;;3.49;100.00
28927;BME280;16038;47.692;9.400;2022-12-07T12:09:33;96543.19;;;3.57;100.00
28927;BME280;16038;47.692;9.400;2022-12-07T12:22:43;96524.19;;;3.66;100.00
28927;BME280;16038;47.692;9.400;2022-12-07T12:25:22;96518.22;;;3.81;100.00
28927;BME280;16038;47.692;9.400;2022-12-07T12:27:50;96525.34;;;3.56;100.00
28927;BME280;16038;47.692;9.400;2022-12-07T12:30:39;96521.94;;;3.68;100.00
28927;BME280;16038;47.692;9.400;2022-12-07T12:33:14;96521.78;;;3.73;100.00
28927;BME280;16038;47.692;9.400;2022-12-07T12:35:41;96516.41;;;3.64;100.00
28927;BME280;16038;47.692;9.400;2022-12-07T12:40:57;96516.41;;;3.64;100.00
28927;BME280;16038;47.692;9.400;2022-12-07T12:43:49;96509.94;;;3.78;100.00
28927;BME280;16038;47.692;9.400;2022-12-07T12:49:15;96512.00;;;3.81;100.00
28927;BME280;16038;47.692;9.400;2022-12-07T12:51:58;96513.94;;;3.80;100.00
28927;BME280;16038;47.692;9.400;2022-12-07T12:54:32;96512.94;;;3.85;100.00
28927;BME280;16038;47.692;9.400;2022-12-07T12:57:15;96509.81;;;4.04;100.00
28927;BME280;16038;47.692;9.400;2022-12-07T12:59:57;96514.31;;;4.00;100.00
28927;BME280;16038;47.692;9.400;2022-12-07T13:02:26;96512.44;;;3.92;100.00
28927;BME280;16038;47.692;9.400;2022-12-07T13:04:59;96516.75;;;3.93;100.00
28927;BME280;16038;47.692;9.400;2022-12-07T13:10:34;96504.66;;;3.81;100.00
28927;BME280;16038;47.692;9.400;2022-12-07T13:28:39;96484.13;;;3.80;100.00
28927;BME280;16038;47.692;9.400;2022-12-07T13:31:19;96476.41;;;3.91;100.00
28927;BME280;16038;47.692;9.400;2022-12-07T13:33:48;96481.00;;;3.70;100.00
28927;BME280;16038;47.692;9.400;2022-12-07T13:36:25;96480.50;;;3.76;100.00
28927;BME280;16038;47.692;9.400;2022-12-07T13:38:57;96480.78;;;3.83;100.00
28927;BME280;16038;47.692;9.400;2022-12-07T13:41:28;96474.22;;;3.85;100.00
28927;BME280;16038;47.692;9.400;2022-12-07T13:44:15;96472.44;;;3.89;100.00
28927;BME280;16038;47.692;9.400;2022-12-07T13:49:24;96475.59;;;3.70;100.00
28927;BME280;16038;47.692;9.400;2022-12-07T13:51:51;96471.69;;;3.79;100.00
28927;BME280;16038;47.692;9.400;2022-12-07T13:54:18;96464.13;;;3.94;100.00
28927;BME280;16038;47.692;9.400;2022-12-07T13:56:44;96461.81;;;3.83;100.00
28927;BME280;16038;47.692;9.400;2022-12-07T13:59:38;96460.44;;;3.69;100.00
28927;BME280;16038;47.692;9.400;2022-12-07T14:04:48;96461.25;;;3.90;100.00
28927;BME280;16038;47.692;9.400;2022-12-07T14:07:28;96461.66;;;4.01;100.00
28927;BME280;16038;47.692;9.400;2022-12-07T14:10:00;96467.38;;;4.08;100.00
28927;BME280;16038;47.692;9.400;2022-12-07T14:12:27;96466.13;;;4.06;100.00
28927;BME280;16038;47.692;9.400;2022-12-07T14:14:53;96464.25;;;3.97;100.00
28927;BME280;16038;47.692;9.400;2022-12-07T14:17:22;96460.53;;;3.81;100.00
28927;BME280;16038;47.692;9.400;2022-12-07T14:20:01;96464.78;;;3.91;100.00
28927;BME280;16038;47.692;9.400;2022-12-07T14:22:37;96463.66;;;3.92;100.00
28927;BME280;16038;47.692;9.400;2022-12-07T14:27:38;96453.94;;;4.12;100.00
28927;BME280;16038;47.692;9.400;2022-12-07T14:30:05;96456.25;;;4.01;100.00
28927;BME280;16038;47.692;9.400;2022-12-07T14:32:31;96453.16;;;4.11;100.00
28927;BME280;16038;47.692;9.400;2022-12-07T14:37:24;96462.22;;;3.94;100.00
28927;BME280;16038;47.692;9.400;2022-12-07T14:39:50;96453.31;;;3.85;100.00
28927;BME280;16038;47.692;9.400;2022-12-07T14:42:15;96455.34;;;3.67;100.00
28927;BME280;16038;47.692;9.400;2022-12-07T14:44:41;96455.41;;;3.58;100.00
28927;BME280;16038;47.692;9.400;2022-12-07T14:47:10;96455.06;;;3.60;100.00
28927;BME280;16038;47.692;9.400;2022-12-07T14:49:36;96455.56;;;3.62;100.00
28927;BME280;16038;47.692;9.400;2022-12-07T14:52:01;96450.88;;;3.71;100.00
28927;BME280;16038;47.692;9.400;2022-12-07T14:54:30;96449.47;;;3.65;100.00
28927;BME280;16038;47.692;9.400;2022-12-07T14:56:56;96451.91;;;3.58;100.00
28927;BME280;16038;47.692;9.400;2022-12-07T14:59:21;96451.78;;;3.45;100.00
28927;BME280;16038;47.692;9.400;2022-12-07T15:01:47;96455.97;;;3.43;100.00
28927;BME280;16038;47.692;9.400;2022-12-07T15:04:12;96454.84;;;3.44;100.00
28927;BME280;16038;47.692;9.400;2022-12-07T15:06:38;96455.03;;;3.39;100.00
28927;BME280;16038;47.692;9.400;2022-12-07T15:09:04;96450.38;;;3.48;100.00
28927;BME280;16038;47.692;9.400;2022-12-07T15:11:29;96451.16;;;3.49;100.00
28927;BME280;16038;47.692;9.400;2022-12-07T15:13:55;96449.31;;;3.40;100.00
28927;BME280;16038;47.692;9.400;2022-12-07T15:16:38;96450.94;;;3.24;100.00
28927;BME280;16038;47.692;9.400;2022-12-07T15:19:25;96455.75;;;3.18;100.00
28927;BME280;16038;47.692;9.400;2022-12-07T15:21:52;96447.94;;;3.17;100.00